Terminal Aerodrome Forecast
Issued by NWS

Home | Current Version | Previous Version | Text Only | Print | Product List | Glossary On
Versions: 1 2 3 4 5 6 7 8 9 10 11 12 13 14 15 16 17
443
FTUS45 KTFX 271745
TAFBZN
TAF
KBZN 271745Z 2718/2818 26008KT P6SM SCT050 BKN120
     FM272300 29011KT P6SM VCSH SCT040 BKN090
      TEMPO 2800/2803 5SM -SHRA BR BKN025
     FM280500 VRB04KT P6SM SCT030 BKN060=

USA.gov is the U.S. government's official web portal to all federal, state and local government web resources and services.